createdAt,value
2024-05-09T00:00:56.978Z,14.20
2024-05-09T00:01:58.781Z,14.20
2024-05-09T00:03:00.974Z,14.20
2024-05-09T00:04:03.275Z,14.20
2024-05-09T00:05:05.423Z,14.10
2024-05-09T00:06:09.336Z,14.10
2024-05-09T00:07:10.915Z,14.10
2024-05-09T00:08:12.787Z,14.10
2024-05-09T00:09:15.144Z,14.20
2024-05-09T00:10:25.221Z,14.10
2024-05-09T00:11:31.102Z,14.10
2024-05-09T00:12:32.963Z,14.10
2024-05-09T00:13:34.399Z,14.10
2024-05-09T00:14:35.944Z,14.10
2024-05-09T00:15:37.942Z,14.10
2024-05-09T00:16:39.375Z,14.10
2024-05-09T00:17:41.454Z,14.20
2024-05-09T00:18:43.066Z,14.20
2024-05-09T00:19:45.962Z,14.10
2024-05-09T00:20:47.629Z,14.10
2024-05-09T00:21:49.352Z,14.10
2024-05-09T00:22:51.125Z,14.20
2024-05-09T00:23:52.595Z,14.20
2024-05-09T00:24:54.030Z,14.20
2024-05-09T00:25:55.482Z,14.20
2024-05-09T00:26:57.833Z,14.10
2024-05-09T00:27:59.312Z,14.10
2024-05-09T00:29:01.004Z,14.10
2024-05-09T00:30:04.182Z,14.00
2024-05-09T00:31:05.827Z,14.10
2024-05-09T00:32:07.925Z,14.10
2024-05-09T00:33:11.045Z,14.10
2024-05-09T00:34:13.600Z,14.00
2024-05-09T00:35:15.212Z,14.00
2024-05-09T00:36:17.354Z,14.00
2024-05-09T00:37:19.264Z,14.00
2024-05-09T00:38:20.758Z,14.00
2024-05-09T00:39:22.639Z,14.00
2024-05-09T00:40:35.071Z,14.00
2024-05-09T00:41:41.099Z,14.00
2024-05-09T00:42:42.564Z,14.00
2024-05-09T00:43:44.291Z,14.00
2024-05-09T00:44:46.019Z,14.00
2024-05-09T00:45:48.628Z,14.00
2024-05-09T00:46:54.623Z,14.00
2024-05-09T00:47:56.807Z,14.00
2024-05-09T00:48:58.686Z,14.00
2024-05-09T00:50:01.848Z,14.00
2024-05-09T00:51:04.612Z,14.00
2024-05-09T00:52:07.505Z,14.00
2024-05-09T00:53:14.153Z,13.90
2024-05-09T00:54:15.869Z,14.00
2024-05-09T00:55:18.284Z,13.90
2024-05-09T00:56:21.833Z,13.90
2024-05-09T00:57:25.528Z,13.90
2024-05-09T00:58:28.966Z,13.90
2024-05-09T00:59:31.965Z,13.90
2024-05-09T01:00:39.047Z,13.90
2024-05-09T01:01:44.277Z,13.90
2024-05-09T01:02:45.860Z,13.90
2024-05-09T01:03:50.417Z,13.80
2024-05-09T01:04:53.417Z,13.80
2024-05-09T01:05:55.005Z,13.80
2024-05-09T01:06:57.037Z,13.80
2024-05-09T01:07:58.568Z,13.80
2024-05-09T01:09:00.349Z,13.80
2024-05-09T01:10:02.476Z,13.70
2024-05-09T01:11:04.397Z,13.70
2024-05-09T01:12:06.854Z,13.70
2024-05-09T01:13:08.398Z,13.70
2024-05-09T01:14:10.085Z,13.70
2024-05-09T01:15:11.539Z,13.60
2024-05-09T01:16:14.798Z,13.60
2024-05-09T01:17:16.955Z,13.60
2024-05-09T01:18:19.061Z,13.60
2024-05-09T01:19:26.612Z,13.60
2024-05-09T01:20:39.066Z,13.60
2024-05-09T01:21:44.158Z,13.50
2024-05-09T01:22:45.740Z,13.50
2024-05-09T01:23:47.604Z,13.50
2024-05-09T01:24:49.695Z,13.40
2024-05-09T01:25:51.193Z,13.30
2024-05-09T01:26:53.001Z,13.20
2024-05-09T01:27:54.490Z,13.20
2024-05-09T01:28:55.947Z,13.20
2024-05-09T01:29:57.505Z,13.10
2024-05-09T01:30:59.026Z,13.10
2024-05-09T01:32:00.798Z,13.00
2024-05-09T01:33:02.491Z,13.00
2024-05-09T01:34:04.163Z,13.00
2024-05-09T01:35:06.566Z,12.90
2024-05-09T01:36:08.377Z,12.90
2024-05-09T01:37:09.808Z,12.90
2024-05-09T01:38:13.973Z,12.90
2024-05-09T01:39:15.779Z,12.90
2024-05-09T01:40:22.108Z,12.90
2024-05-09T01:41:27.107Z,12.90
2024-05-09T01:42:28.642Z,12.90
2024-05-09T01:43:30.502Z,12.90
2024-05-09T01:44:31.992Z,12.90
2024-05-09T01:45:33.702Z,12.90
2024-05-09T01:46:35.669Z,12.80
2024-05-09T01:47:37.554Z,12.90
2024-05-09T01:48:39.378Z,12.60
2024-05-09T01:49:41.265Z,12.60
2024-05-09T01:50:43.661Z,12.60
2024-05-09T01:51:45.859Z,12.40
2024-05-09T01:52:47.402Z,12.30
2024-05-09T01:53:49.219Z,12.30
2024-05-09T01:54:50.645Z,12.10
2024-05-09T01:55:52.417Z,12.10
2024-05-09T01:56:53.887Z,12.00
2024-05-09T01:57:55.354Z,12.00
2024-05-09T01:58:56.864Z,12.00
2024-05-09T01:59:58.314Z,11.90
2024-05-09T02:01:00.149Z,11.80
2024-05-09T02:02:01.811Z,11.70
2024-05-09T02:03:04.055Z,11.70
2024-05-09T02:04:05.983Z,11.60
2024-05-09T02:05:07.937Z,11.60
2024-05-09T02:06:09.782Z,11.60
2024-05-09T02:07:11.271Z,11.60
2024-05-09T02:08:17.458Z,11.50
2024-05-09T02:09:19.456Z,11.50
2024-05-09T02:10:26.400Z,11.50
2024-05-09T02:11:40.351Z,11.50
2024-05-09T02:12:42.102Z,11.50
2024-05-09T02:13:43.650Z,11.40
2024-05-09T02:14:45.150Z,11.40
2024-05-09T02:15:46.725Z,11.30
2024-05-09T02:16:48.379Z,11.30
2024-05-09T02:17:50.695Z,11.30
2024-05-09T02:18:52.659Z,11.20
2024-05-09T02:19:54.439Z,11.20
2024-05-09T02:20:55.901Z,11.20
2024-05-09T02:21:57.629Z,11.20
2024-05-09T02:22:59.604Z,11.20
2024-05-09T02:24:01.242Z,11.20
2024-05-09T02:25:02.886Z,11.20
2024-05-09T02:26:04.939Z,11.20
2024-05-09T02:27:06.670Z,11.20
2024-05-09T02:28:08.640Z,11.10
2024-05-09T02:29:10.349Z,11.10
2024-05-09T02:30:18.965Z,11.10
2024-05-09T02:31:27.621Z,11.10
2024-05-09T02:32:29.474Z,11.10
2024-05-09T02:33:31.222Z,11.20
2024-05-09T02:34:33.108Z,11.20
2024-05-09T02:35:35.209Z,11.20
2024-05-09T02:36:39.413Z,11.20
2024-05-09T02:37:41.429Z,11.20
2024-05-09T02:38:42.989Z,11.20
2024-05-09T02:39:44.495Z,11.20
2024-05-09T02:40:46.039Z,11.20
2024-05-09T02:41:47.765Z,11.10
2024-05-09T02:42:49.259Z,11.10
2024-05-09T02:43:50.727Z,11.10
2024-05-09T02:44:52.245Z,11.10
2024-05-09T02:45:53.859Z,11.20
2024-05-09T02:46:55.306Z,11.10
2024-05-09T02:47:57.430Z,11.10
2024-05-09T02:48:59.241Z,11.10
2024-05-09T02:50:01.101Z,11.10
2024-05-09T02:51:02.995Z,11.10
2024-05-09T02:52:04.720Z,11.10
2024-05-09T02:53:07.490Z,11.10
2024-05-09T02:54:10.654Z,11.10
2024-05-09T02:55:12.357Z,11.10
2024-05-09T02:56:13.871Z,11.10
2024-05-09T02:57:15.431Z,11.10
2024-05-09T02:58:17.471Z,11.10
2024-05-09T02:59:18.994Z,11.00
2024-05-09T03:00:26.438Z,11.00
2024-05-09T03:01:36.355Z,11.00
2024-05-09T03:02:37.929Z,10.90
2024-05-09T03:03:43.123Z,10.90
2024-05-09T03:04:45.137Z,10.90
2024-05-09T03:05:47.082Z,10.90
2024-05-09T03:06:50.062Z,10.80
2024-05-09T03:07:52.095Z,10.80
2024-05-09T03:08:53.824Z,10.80
2024-05-09T03:09:55.254Z,10.70
2024-05-09T03:10:56.706Z,10.70
2024-05-09T03:11:58.544Z,10.70
2024-05-09T03:13:00.483Z,10.60
2024-05-09T03:14:02.110Z,10.60
2024-05-09T03:15:03.834Z,10.50
2024-05-09T03:16:05.665Z,10.50
2024-05-09T03:17:08.097Z,10.50
2024-05-09T03:18:10.698Z,10.50
2024-05-09T03:19:12.927Z,10.50
2024-05-09T03:20:20.680Z,10.40
2024-05-09T03:21:25.924Z,10.40
2024-05-09T03:22:28.631Z,10.30
2024-05-09T03:23:30.063Z,10.30
2024-05-09T03:24:32.098Z,10.20
2024-05-09T03:25:34.044Z,10.30
2024-05-09T03:26:35.820Z,10.30
2024-05-09T03:27:38.074Z,10.30
2024-05-09T03:28:39.646Z,10.30
2024-05-09T03:29:41.348Z,10.20
2024-05-09T03:30:43.414Z,10.20
2024-05-09T03:31:45.239Z,10.20
2024-05-09T03:32:47.060Z,10.10
2024-05-09T03:33:49.181Z,10.10
2024-05-09T03:34:51.294Z,10.10
2024-05-09T03:35:53.034Z,10.10
2024-05-09T03:36:54.486Z,10.10
2024-05-09T03:37:55.926Z,10.00
2024-05-09T03:38:57.380Z,10.00
2024-05-09T03:39:58.848Z,10.00
2024-05-09T03:41:00.276Z,10.00
2024-05-09T03:42:01.744Z,10.00
2024-05-09T03:43:03.481Z,10.00
2024-05-09T03:44:05.112Z,10.00
2024-05-09T03:45:06.911Z,9.90
2024-05-09T03:46:08.329Z,9.90
2024-05-09T03:47:09.886Z,9.90
2024-05-09T03:48:11.984Z,9.90
2024-05-09T03:49:14.151Z,10.00
2024-05-09T03:50:22.702Z,9.90
2024-05-09T03:51:30.985Z,9.90
2024-05-09T03:52:32.660Z,9.90
2024-05-09T03:53:34.456Z,9.90
2024-05-09T03:54:36.062Z,9.90
2024-05-09T03:55:37.841Z,9.90
2024-05-09T03:56:39.919Z,9.90
2024-05-09T03:57:41.678Z,9.90
2024-05-09T03:58:43.105Z,9.90
2024-05-09T03:59:44.620Z,9.90
2024-05-09T04:00:46.648Z,9.90
2024-05-09T04:01:48.204Z,9.90
2024-05-09T04:02:50.154Z,9.90
2024-05-09T04:03:52.616Z,9.90
2024-05-09T04:04:54.241Z,9.90
2024-05-09T04:05:56.812Z,9.90
2024-05-09T04:06:58.236Z,9.90
2024-05-09T04:08:00.053Z,9.80
2024-05-09T04:09:01.531Z,9.90
2024-05-09T04:10:04.036Z,9.90
2024-05-09T04:11:07.098Z,9.90
2024-05-09T04:12:08.658Z,9.90
2024-05-09T04:13:10.952Z,9.90
2024-05-09T04:14:12.800Z,9.90
2024-05-09T04:15:14.929Z,9.90
2024-05-09T04:16:16.965Z,9.90
2024-05-09T04:17:18.664Z,9.80
2024-05-09T04:18:20.225Z,9.80
2024-05-09T04:19:21.892Z,9.80
2024-05-09T04:20:34.271Z,9.80
2024-05-09T04:21:41.170Z,9.80
2024-05-09T04:22:42.601Z,9.70
2024-05-09T04:23:44.066Z,9.70
2024-05-09T04:24:45.692Z,9.70
2024-05-09T04:25:47.410Z,9.70
2024-05-09T04:26:49.156Z,9.70
2024-05-09T04:27:50.592Z,9.70
2024-05-09T04:28:52.124Z,9.70
2024-05-09T04:29:55.352Z,9.70
2024-05-09T04:30:57.391Z,9.60
2024-05-09T04:31:58.999Z,9.60
2024-05-09T04:33:01.256Z,9.60
2024-05-09T04:34:04.241Z,9.70
2024-05-09T04:35:06.354Z,9.70
2024-05-09T04:36:08.179Z,9.70
2024-05-09T04:37:09.619Z,9.60
2024-05-09T04:38:11.918Z,9.60
2024-05-09T04:39:13.418Z,9.60
2024-05-09T04:40:23.985Z,9.60
2024-05-09T04:41:32.626Z,9.60
2024-05-09T04:42:34.227Z,9.60
2024-05-09T04:43:35.875Z,9.60
2024-05-09T04:44:37.343Z,9.60
2024-05-09T04:45:38.820Z,9.60
2024-05-09T04:46:40.288Z,9.60
2024-05-09T04:47:42.638Z,9.50
2024-05-09T04:48:45.115Z,9.50
2024-05-09T04:49:46.679Z,9.60
2024-05-09T04:50:49.274Z,9.50
2024-05-09T04:51:51.227Z,9.50
2024-05-09T04:52:53.038Z,9.60
2024-05-09T04:53:54.682Z,9.60
2024-05-09T04:54:58.530Z,9.60
2024-05-09T04:56:00.639Z,9.60
2024-05-09T04:57:02.371Z,9.60
2024-05-09T04:58:03.963Z,9.60
2024-05-09T04:59:05.720Z,9.60
2024-05-09T05:00:14.499Z,9.60
2024-05-09T05:01:19.892Z,9.60
2024-05-09T05:02:21.919Z,9.60
2024-05-09T05:03:23.929Z,9.60
2024-05-09T05:04:25.725Z,9.60
2024-05-09T05:05:27.969Z,9.70
2024-05-09T05:06:30.195Z,9.70
2024-05-09T05:07:31.912Z,9.70
2024-05-09T05:08:37.379Z,9.80
2024-05-09T05:09:38.913Z,9.80
2024-05-09T05:10:41.484Z,9.90
2024-05-09T05:11:43.678Z,9.90
2024-05-09T05:13:03.826Z,9.90
2024-05-09T05:14:06.321Z,9.90
2024-05-09T05:15:07.914Z,10.10
2024-05-09T05:16:09.670Z,10.20
2024-05-09T05:17:11.394Z,10.10
2024-05-09T05:18:13.335Z,10.10
2024-05-09T05:19:17.128Z,10.20
2024-05-09T05:20:27.357Z,10.20
2024-05-09T05:21:35.028Z,10.20
2024-05-09T05:22:36.679Z,10.20
2024-05-09T05:23:38.695Z,10.30
2024-05-09T05:24:40.606Z,10.30
2024-05-09T05:25:42.591Z,10.50
2024-05-09T05:26:44.729Z,10.50
2024-05-09T05:27:46.196Z,10.50
2024-05-09T05:28:49.155Z,10.60
2024-05-09T05:29:50.600Z,10.60
2024-05-09T05:30:52.021Z,10.50
2024-05-09T05:31:54.090Z,10.60
2024-05-09T05:32:55.956Z,10.60
2024-05-09T05:33:57.601Z,10.60
2024-05-09T05:34:59.080Z,10.70
2024-05-09T05:36:00.626Z,10.90
2024-05-09T05:37:02.325Z,10.90
2024-05-09T05:38:04.437Z,10.90
2024-05-09T05:39:06.117Z,11.00
2024-05-09T05:40:11.893Z,10.90
2024-05-09T05:41:16.107Z,10.90
2024-05-09T05:42:17.618Z,10.90
2024-05-09T05:43:19.278Z,10.80
2024-05-09T05:44:20.855Z,10.80
2024-05-09T05:45:23.692Z,10.80
2024-05-09T05:46:25.363Z,10.80
2024-05-09T05:47:27.323Z,10.80
2024-05-09T05:48:29.426Z,10.90
2024-05-09T05:49:31.946Z,10.90
2024-05-09T05:50:36.734Z,11.00
2024-05-09T05:51:39.732Z,11.10
2024-05-09T05:52:41.153Z,11.10
2024-05-09T05:53:42.816Z,11.10
2024-05-09T05:54:44.361Z,11.20
2024-05-09T05:55:46.316Z,11.20
2024-05-09T05:56:48.088Z,11.30
2024-05-09T05:57:49.577Z,11.30
2024-05-09T05:58:51.424Z,11.40
2024-05-09T05:59:53.848Z,11.40
2024-05-09T06:00:55.343Z,11.50
2024-05-09T06:01:56.875Z,11.40
2024-05-09T06:02:58.431Z,11.40
2024-05-09T06:04:01.178Z,11.40
2024-05-09T06:05:03.196Z,11.50
2024-05-09T06:06:05.197Z,11.50
2024-05-09T06:07:07.741Z,11.50
2024-05-09T06:08:09.602Z,11.60
2024-05-09T06:09:11.170Z,11.70
2024-05-09T06:10:17.649Z,11.60
2024-05-09T06:11:23.416Z,11.70
2024-05-09T06:12:25.235Z,11.70
2024-05-09T06:13:26.795Z,11.70
2024-05-09T06:14:28.325Z,11.70
2024-05-09T06:15:29.984Z,11.70
2024-05-09T06:16:31.503Z,11.60
2024-05-09T06:17:33.466Z,11.70
2024-05-09T06:18:35.288Z,11.70
2024-05-09T06:19:38.439Z,11.70
2024-05-09T06:20:43.263Z,11.80
2024-05-09T06:21:45.597Z,11.80
2024-05-09T06:22:47.076Z,11.80
2024-05-09T06:23:49.492Z,11.90
2024-05-09T06:24:50.911Z,12.00
2024-05-09T06:25:52.641Z,12.00
2024-05-09T06:26:54.234Z,12.10
2024-05-09T06:27:55.715Z,12.10
2024-05-09T06:28:57.413Z,12.20
2024-05-09T06:29:58.890Z,12.20
2024-05-09T06:31:02.063Z,12.20
2024-05-09T06:32:03.870Z,12.30
2024-05-09T06:33:06.619Z,12.30
2024-05-09T06:34:08.687Z,12.40
2024-05-09T06:35:10.210Z,12.40
2024-05-09T06:36:11.962Z,12.50
2024-05-09T06:37:13.550Z,12.50
2024-05-09T06:38:15.158Z,12.60
2024-05-09T06:39:16.889Z,12.70
2024-05-09T06:40:25.422Z,12.60
2024-05-09T06:41:31.539Z,12.70
2024-05-09T06:42:33.276Z,12.70
2024-05-09T06:43:35.264Z,12.70
2024-05-09T06:44:36.956Z,12.70
2024-05-09T06:45:39.986Z,12.80
2024-05-09T06:46:42.064Z,12.90
2024-05-09T06:47:44.008Z,13.00
2024-05-09T06:48:46.566Z,13.10
2024-05-09T06:49:48.347Z,13.10
2024-05-09T06:50:52.267Z,13.20
2024-05-09T06:51:54.484Z,13.20
2024-05-09T06:52:56.052Z,13.30
2024-05-09T06:53:57.502Z,13.40
2024-05-09T06:54:59.203Z,13.40
2024-05-09T06:56:00.866Z,13.50
2024-05-09T06:57:02.610Z,13.50
2024-05-09T06:58:05.935Z,13.60
2024-05-09T06:59:07.727Z,13.60
2024-05-09T07:00:15.526Z,13.60
2024-05-09T07:01:20.678Z,13.70
2024-05-09T07:02:22.240Z,13.70
2024-05-09T07:03:24.049Z,13.80
2024-05-09T07:04:26.125Z,13.80
2024-05-09T07:05:27.777Z,13.80
2024-05-09T07:06:29.549Z,13.90
2024-05-09T07:07:30.966Z,13.90
2024-05-09T07:08:32.532Z,13.80
2024-05-09T07:09:34.084Z,13.70
2024-05-09T07:10:36.840Z,13.60
2024-05-09T07:11:38.813Z,13.50
2024-05-09T07:12:40.639Z,13.60
2024-05-09T07:13:42.419Z,13.40
2024-05-09T07:14:43.944Z,13.40
2024-05-09T07:15:46.198Z,13.40
2024-05-09T07:16:47.769Z,13.40
2024-05-09T07:17:49.451Z,13.50
2024-05-09T07:18:55.068Z,13.50
2024-05-09T07:19:57.033Z,13.60
2024-05-09T07:20:58.781Z,13.60
2024-05-09T07:22:00.247Z,13.70
2024-05-09T07:23:02.836Z,13.70
2024-05-09T07:24:04.780Z,13.80
2024-05-09T07:25:06.312Z,13.90
2024-05-09T07:26:08.100Z,14.00
2024-05-09T07:27:09.555Z,14.10
2024-05-09T07:28:15.768Z,14.20
2024-05-09T07:29:17.369Z,14.30
2024-05-09T07:30:27.103Z,14.40
2024-05-09T07:31:32.619Z,14.50
2024-05-09T07:32:34.169Z,14.50
2024-05-09T07:33:35.758Z,14.60
2024-05-09T07:34:37.420Z,14.60
2024-05-09T07:35:39.280Z,14.70
2024-05-09T07:36:41.072Z,14.90
2024-05-09T07:37:42.630Z,15.00
2024-05-09T07:38:44.289Z,15.10
2024-05-09T07:39:45.787Z,15.10
2024-05-09T07:40:47.321Z,15.10
2024-05-09T07:41:48.867Z,15.10
2024-05-09T07:42:50.556Z,15.10
2024-05-09T07:43:52.430Z,15.30
2024-05-09T07:44:55.495Z,15.40
2024-05-09T07:45:59.720Z,15.50
2024-05-09T07:48:28.879Z,15.60
2024-05-09T07:50:34.434Z,15.70
2024-05-09T07:53:37.172Z,15.60
2024-05-09T07:54:33.615Z,15.60
2024-05-09T07:55:35.456Z,15.60
2024-05-09T07:56:37.255Z,15.50
2024-05-09T07:57:39.457Z,15.50
2024-05-09T07:58:43.899Z,15.70
2024-05-09T07:59:45.667Z,15.80
2024-05-09T08:00:47.270Z,16.00
2024-05-09T08:01:49.205Z,16.00
2024-05-09T08:02:50.755Z,15.90
2024-05-09T08:03:53.970Z,15.90
2024-05-09T08:04:55.910Z,15.90
2024-05-09T08:05:57.417Z,16.00
2024-05-09T08:06:59.175Z,16.10
2024-05-09T08:08:01.105Z,16.20
2024-05-09T08:09:07.692Z,16.30
2024-05-09T08:10:15.318Z,16.40
2024-05-09T08:11:20.533Z,16.60
2024-05-09T08:12:22.286Z,16.70
2024-05-09T08:13:25.347Z,16.80
2024-05-09T08:14:27.358Z,16.80
2024-05-09T08:15:28.987Z,16.90
2024-05-09T08:16:30.686Z,17.00
2024-05-09T08:17:32.355Z,17.00
2024-05-09T08:18:34.158Z,17.10
2024-05-09T08:19:37.601Z,17.20
2024-05-09T08:20:40.265Z,17.20
2024-05-09T08:21:41.734Z,17.40
2024-05-09T08:22:43.452Z,17.40
2024-05-09T08:23:45.750Z,17.30
2024-05-09T08:24:47.532Z,17.30
2024-05-09T08:25:49.675Z,17.40
2024-05-09T08:26:51.296Z,17.40
2024-05-09T08:27:53.134Z,17.50
2024-05-09T08:28:54.612Z,17.40
2024-05-09T08:29:56.307Z,17.40
2024-05-09T08:30:57.979Z,17.50
2024-05-09T08:31:59.685Z,17.40
2024-05-09T08:33:01.594Z,17.50
2024-05-09T08:34:03.623Z,17.50
2024-05-09T08:35:06.270Z,17.50
2024-05-09T08:36:08.123Z,17.30
2024-05-09T08:37:15.696Z,17.20
2024-05-09T08:38:23.404Z,17.10
2024-05-09T08:39:24.848Z,17.20
2024-05-09T08:40:33.868Z,17.20
2024-05-09T08:41:41.436Z,17.20
2024-05-09T08:42:51.016Z,17.30
2024-05-09T08:43:52.479Z,17.40
2024-05-09T08:44:54.062Z,17.50
2024-05-09T08:45:57.530Z,17.60
2024-05-09T08:46:59.689Z,17.60
2024-05-09T08:48:06.425Z,17.60
2024-05-09T08:49:08.707Z,17.70
2024-05-09T08:50:23.924Z,17.70
2024-05-09T08:51:33.602Z,17.70
2024-05-09T08:52:35.145Z,17.70
2024-05-09T08:53:36.649Z,17.60
2024-05-09T08:54:38.108Z,17.60
2024-05-09T08:55:43.232Z,17.70
2024-05-09T08:56:48.122Z,17.60
2024-05-09T08:57:49.640Z,17.60
2024-05-09T08:58:56.433Z,17.60
2024-05-09T09:00:04.849Z,17.50
2024-05-09T09:01:08.008Z,17.50
2024-05-09T09:02:13.246Z,17.50
2024-05-09T09:03:19.225Z,17.40
2024-05-09T09:04:23.788Z,17.20
2024-05-09T09:05:29.264Z,17.10
2024-05-09T09:06:34.619Z,16.90
2024-05-09T09:07:39.064Z,16.90
2024-05-09T09:08:40.685Z,17.00
2024-05-09T09:09:45.197Z,17.00
2024-05-09T09:10:48.193Z,17.00
2024-05-09T09:11:50.028Z,17.00
2024-05-09T09:12:58.062Z,17.10
2024-05-09T09:13:59.653Z,17.20
2024-05-09T09:15:01.175Z,17.30
2024-05-09T09:16:03.661Z,17.40
2024-05-09T09:17:16.171Z,17.50
2024-05-09T09:18:18.835Z,17.60
2024-05-09T09:19:23.469Z,17.80
2024-05-09T09:20:35.814Z,17.90
2024-05-09T09:21:38.494Z,17.90
2024-05-09T09:22:39.939Z,18.00
2024-05-09T09:23:41.802Z,17.90
2024-05-09T09:24:43.230Z,18.00
2024-05-09T09:25:44.691Z,18.10
2024-05-09T09:26:46.119Z,18.30
2024-05-09T09:27:48.037Z,18.40
2024-05-09T09:28:49.982Z,18.60
2024-05-09T09:29:51.641Z,18.80
2024-05-09T09:30:53.107Z,19.00
2024-05-09T09:32:05.547Z,19.10
2024-05-09T09:33:11.437Z,19.20
2024-05-09T09:34:13.502Z,19.30
2024-05-09T09:35:16.627Z,19.00
2024-05-09T09:36:19.083Z,19.00
2024-05-09T09:37:28.484Z,18.90
2024-05-09T09:38:31.560Z,18.60
2024-05-09T09:39:34.899Z,18.60
2024-05-09T09:40:43.001Z,18.60
2024-05-09T09:41:49.264Z,18.60
2024-05-09T09:42:57.303Z,18.60
2024-05-09T09:44:00.554Z,18.60
2024-05-09T09:45:05.376Z,18.60
2024-05-09T09:46:12.289Z,18.70
2024-05-09T09:47:16.140Z,18.70
2024-05-09T09:48:19.585Z,18.70
2024-05-09T09:49:24.919Z,18.60
2024-05-09T09:50:33.519Z,18.60
2024-05-09T09:51:37.616Z,18.40
2024-05-09T09:52:39.217Z,18.40
2024-05-09T09:53:42.513Z,18.30
2024-05-09T09:54:45.623Z,18.30
2024-05-09T09:55:48.175Z,18.40
2024-05-09T09:56:51.732Z,18.30
2024-05-09T09:57:55.851Z,18.40
2024-05-09T09:58:58.234Z,18.40
2024-05-09T10:00:00.583Z,18.40
2024-05-09T10:01:02.199Z,18.30
2024-05-09T10:02:04.047Z,18.30
2024-05-09T10:03:05.738Z,18.20
2024-05-09T10:04:07.968Z,18.20
2024-05-09T10:05:10.167Z,18.10
2024-05-09T10:06:12.658Z,18.10
2024-05-09T10:07:15.880Z,18.10
2024-05-09T10:08:18.840Z,18.20
2024-05-09T10:09:20.968Z,18.20
2024-05-09T10:10:30.436Z,18.30
2024-05-09T10:11:41.863Z,18.40
2024-05-09T10:13:03.383Z,18.50
2024-05-09T10:14:06.645Z,18.50
2024-05-09T10:15:09.407Z,18.60
2024-05-09T10:16:12.057Z,18.60
2024-05-09T10:17:14.134Z,18.70
2024-05-09T10:18:16.122Z,18.70
2024-05-09T10:19:28.042Z,18.60
2024-05-09T10:20:45.821Z,18.60
2024-05-09T10:21:47.553Z,18.80
2024-05-09T10:22:50.442Z,18.50
2024-05-09T10:24:03.114Z,18.40
2024-05-09T10:25:08.720Z,18.40
2024-05-09T10:26:10.765Z,18.50
2024-05-09T10:27:12.837Z,18.50
2024-05-09T10:28:15.460Z,18.60
2024-05-09T10:29:18.720Z,18.60
2024-05-09T10:30:33.714Z,18.70
2024-05-09T10:31:41.050Z,18.80
2024-05-09T10:32:45.042Z,18.90
2024-05-09T10:33:52.048Z,18.90
2024-05-09T10:35:11.786Z,19.00
2024-05-09T10:36:31.693Z,19.10
2024-05-09T10:37:33.773Z,19.00
2024-05-09T10:38:36.445Z,19.10
2024-05-09T10:39:39.686Z,19.20
2024-05-09T10:40:42.503Z,19.20
2024-05-09T10:41:44.693Z,19.20
2024-05-09T10:42:46.548Z,19.40
2024-05-09T10:43:48.988Z,19.30
2024-05-09T10:44:50.786Z,19.30
2024-05-09T10:45:52.655Z,19.40
2024-05-09T10:46:55.228Z,19.40
2024-05-09T10:47:56.954Z,19.40
2024-05-09T10:49:00.973Z,19.40
2024-05-09T10:50:06.031Z,19.40
2024-05-09T10:51:09.998Z,19.40
2024-05-09T10:52:11.534Z,19.40
2024-05-09T10:53:13.328Z,19.30
2024-05-09T10:54:15.113Z,19.40
2024-05-09T10:55:16.640Z,19.50
2024-05-09T10:56:18.848Z,19.50
2024-05-09T10:57:22.440Z,19.40
2024-05-09T10:58:25.163Z,19.50
2024-05-09T10:59:37.048Z,19.50
2024-05-09T11:00:38.864Z,19.40
2024-05-09T11:01:41.098Z,19.50
2024-05-09T11:05:47.635Z,19.80
2024-05-09T11:06:49.640Z,19.90
2024-05-09T11:07:51.650Z,19.90
2024-05-09T11:08:53.273Z,19.90
2024-05-09T11:09:55.230Z,20.10
2024-05-09T11:10:57.094Z,20.10
2024-05-09T11:11:59.013Z,20.10
2024-05-09T11:13:01.404Z,20.20
2024-05-09T11:17:06.570Z,20.10
2024-05-09T11:18:24.988Z,20.00
2024-05-09T11:19:31.429Z,20.00
2024-05-09T11:20:37.270Z,20.10
2024-05-09T11:21:39.498Z,19.90
2024-05-09T11:22:41.001Z,20.00
2024-05-09T11:23:42.506Z,20.00
2024-05-09T11:24:44.465Z,20.00
2024-05-09T11:25:49.878Z,20.00
2024-05-09T11:26:51.434Z,20.00
2024-05-09T11:27:53.022Z,20.00
2024-05-09T11:28:54.794Z,19.90
2024-05-09T11:29:58.601Z,19.90
2024-05-09T11:31:07.927Z,19.90
2024-05-09T11:32:11.725Z,19.90
2024-05-09T11:33:14.473Z,20.00
2024-05-09T11:34:16.201Z,20.10
2024-05-09T11:35:18.164Z,20.10
2024-05-09T11:39:26.889Z,19.90
2024-05-09T11:40:34.051Z,19.90
2024-05-09T11:41:36.282Z,19.90
2024-05-09T11:42:37.963Z,19.80
2024-05-09T11:43:39.972Z,19.80
2024-05-09T11:44:41.490Z,19.70
2024-05-09T11:45:43.030Z,19.70
2024-05-09T11:46:44.644Z,19.80
2024-05-09T11:47:46.590Z,19.80
2024-05-09T11:48:48.509Z,19.70
2024-05-09T11:49:51.011Z,19.80
2024-05-09T11:50:54.664Z,19.90
2024-05-09T11:51:56.454Z,20.00
2024-05-09T11:52:58.577Z,19.90
2024-05-09T11:54:00.172Z,20.00
2024-05-09T11:55:02.929Z,19.90
2024-05-09T11:56:05.300Z,19.80
2024-05-09T11:57:10.221Z,19.80
2024-05-09T11:58:16.080Z,19.80
2024-05-09T11:59:18.080Z,19.80
2024-05-09T12:00:29.157Z,19.70
2024-05-09T12:01:38.520Z,19.70
2024-05-09T12:02:40.128Z,19.60
2024-05-09T12:03:42.016Z,19.70
2024-05-09T12:04:43.701Z,19.60
2024-05-09T12:05:45.708Z,19.80
2024-05-09T12:06:47.616Z,19.60
2024-05-09T12:07:51.095Z,19.60
2024-05-09T12:08:52.608Z,19.50
2024-05-09T12:09:54.174Z,19.60
2024-05-09T12:10:56.332Z,19.60
2024-05-09T12:11:58.399Z,19.70
2024-05-09T12:13:00.283Z,19.70
2024-05-09T12:14:01.884Z,19.60
2024-05-09T12:15:03.766Z,19.60
2024-05-09T12:16:06.140Z,19.70
2024-05-09T12:17:08.480Z,19.80
2024-05-09T12:18:10.327Z,19.90
2024-05-09T12:19:11.908Z,20.00
2024-05-09T12:20:21.321Z,20.10
2024-05-09T12:21:30.088Z,20.20
2024-05-09T12:22:31.523Z,20.10
2024-05-09T12:23:33.206Z,20.20
2024-05-09T12:24:35.155Z,20.20
2024-05-09T12:25:36.940Z,20.10
2024-05-09T12:26:38.704Z,20.10
2024-05-09T12:27:40.433Z,20.10
2024-05-09T12:28:43.336Z,20.10
2024-05-09T12:29:45.373Z,20.20
2024-05-09T12:30:47.235Z,20.10
2024-05-09T12:31:49.126Z,20.10
2024-05-09T12:32:50.627Z,20.30
2024-05-09T12:33:54.420Z,20.50
2024-05-09T12:34:55.917Z,20.60
2024-05-09T12:35:57.443Z,20.80
2024-05-09T12:36:59.876Z,20.90
2024-05-09T12:38:01.629Z,21.00
2024-05-09T12:39:05.899Z,21.10
2024-05-09T12:40:15.820Z,21.20
2024-05-09T12:41:20.159Z,21.30
2024-05-09T12:42:27.276Z,21.20
2024-05-09T12:43:30.695Z,21.10
2024-05-09T12:44:32.284Z,21.10
2024-05-09T12:45:34.307Z,21.00
2024-05-09T12:46:35.943Z,21.00
2024-05-09T12:47:37.805Z,20.90
2024-05-09T12:48:39.941Z,20.80
2024-05-09T12:49:41.706Z,20.70
2024-05-09T12:50:43.574Z,20.60
2024-05-09T12:51:45.109Z,20.60
2024-05-09T12:52:46.541Z,20.40
2024-05-09T12:53:47.958Z,20.40
2024-05-09T12:54:49.415Z,20.40
2024-05-09T12:55:56.957Z,20.50
2024-05-09T12:57:03.038Z,20.40
2024-05-09T12:58:05.350Z,20.40
2024-05-09T12:59:06.825Z,20.40
2024-05-09T13:00:14.229Z,20.40
2024-05-09T13:01:22.208Z,20.50
2024-05-09T13:02:23.835Z,20.60
2024-05-09T13:03:25.828Z,20.50
2024-05-09T13:04:27.431Z,20.50
2024-05-09T13:05:29.897Z,20.60
2024-05-09T13:06:31.747Z,20.70
2024-05-09T13:07:33.299Z,20.90
2024-05-09T13:08:35.156Z,21.10
2024-05-09T13:09:37.190Z,21.20
2024-05-09T13:10:38.996Z,21.20
2024-05-09T13:11:40.801Z,21.30
2024-05-09T13:12:43.108Z,21.20
2024-05-09T13:13:44.831Z,21.30
2024-05-09T13:14:47.076Z,21.50
2024-05-09T13:15:48.991Z,21.60
2024-05-09T13:16:50.632Z,21.70
2024-05-09T13:17:52.213Z,21.70
2024-05-09T13:18:53.785Z,21.70
2024-05-09T13:19:55.568Z,21.50
2024-05-09T13:20:57.336Z,21.60
2024-05-09T13:21:58.851Z,21.60
2024-05-09T13:23:01.891Z,21.70
2024-05-09T13:24:04.453Z,21.60
2024-05-09T13:25:06.405Z,21.60
2024-05-09T13:26:08.507Z,21.60
2024-05-09T13:27:10.048Z,21.70
2024-05-09T13:28:11.591Z,21.70
2024-05-09T13:29:13.336Z,21.80
2024-05-09T13:30:21.916Z,21.70
2024-05-09T13:31:30.827Z,21.60
2024-05-09T13:32:32.658Z,21.50
2024-05-09T13:33:34.603Z,21.50
2024-05-09T13:34:36.409Z,21.50
2024-05-09T13:35:38.236Z,21.60
2024-05-09T13:36:40.049Z,21.60
2024-05-09T13:37:41.583Z,21.60
2024-05-09T13:38:43.054Z,21.70
2024-05-09T13:39:44.847Z,21.80
2024-05-09T13:40:46.696Z,21.80
2024-05-09T13:41:48.465Z,21.90
2024-05-09T13:42:50.212Z,22.10
2024-05-09T13:43:53.527Z,22.10
2024-05-09T13:44:55.310Z,22.10
2024-05-09T13:45:57.735Z,22.30
2024-05-09T13:46:59.380Z,22.40
2024-05-09T13:48:02.705Z,22.50